EWG3JM EDDM-EDDH
Flight info
| Callsign | EWG3JM |
|---|---|
| Flight time | 1h 12m |
| Altitude | 36000 |
| Route | INPUD2S INPUD Y102 UPALA M726 NARUS DCT ABGUS DCT DIRBO/N0382F230 T902 RARUP RARUP6A |
| Aircraft | A320/M-SDE3FGHIRWY/LB1 |
Departure
| Time | 2026-05-07 19:08 |
|---|---|
| Airport | Munich Airport (EDDM) |
Arrival
| Time | 2026-05-07 20:21 |
|---|---|
| Airport | Hamburg Helmut Schmidt Airport (EDDH) |
| Time | Latitude | Longitude | Altitude | Speed | Heading |
|---|---|---|---|---|---|
| 2026-05-07 18:24 | 48.34948 | 11.78374 | 1486 ft | 0 kts | 83° |
| 2026-05-07 18:42 | 48.34948 | 11.78371 | 1485 ft | 1 kts | 83° |
| 2026-05-07 18:42 | 48.34946 | 11.78346 | 1475 ft | 3 kts | 83° |
| 2026-05-07 18:42 | 48.34944 | 11.78316 | 1476 ft | 3 kts | 83° |
| 2026-05-07 18:43 | 48.34942 | 11.78287 | 1475 ft | 3 kts | 88° |
| 2026-05-07 18:43 | 48.34943 | 11.78257 | 1476 ft | 3 kts | 111° |
| 2026-05-07 18:43 | 48.34952 | 11.78234 | 1479 ft | 3 kts | 153° |
| 2026-05-07 18:43 | 48.34963 | 11.78228 | 1479 ft | 2 kts | 173° |
| 2026-05-07 18:44 | 48.34978 | 11.78225 | 1477 ft | 1 kts | 173° |
| 2026-05-07 18:44 | 48.34980 | 11.78225 | 1476 ft | 0 kts | 173° |
| 2026-05-07 18:51 | 48.34979 | 11.78225 | 1476 ft | 1 kts | 174° |
| 2026-05-07 18:51 | 48.34948 | 11.78205 | 1482 ft | 7 kts | 195° |
| 2026-05-07 18:51 | 48.34934 | 11.78250 | 1478 ft | 6 kts | 69° |
| 2026-05-07 18:51 | 48.34983 | 11.78261 | 1474 ft | 10 kts | 352° |
| 2026-05-07 18:52 | 48.35065 | 11.78247 | 1485 ft | 14 kts | 354° |
| 2026-05-07 18:52 | 48.35161 | 11.78230 | 1477 ft | 15 kts | 353° |
| 2026-05-07 18:52 | 48.35201 | 11.78123 | 1479 ft | 11 kts | 264° |
| 2026-05-07 18:52 | 48.35193 | 11.78025 | 1480 ft | 8 kts | 263° |
| 2026-05-07 18:53 | 48.35189 | 11.77969 | 1485 ft | 3 kts | 263° |
| 2026-05-07 18:53 | 48.35188 | 11.77958 | 1473 ft | 0 kts | 263° |
| 2026-05-07 18:55 | 48.35188 | 11.77955 | 1473 ft | 2 kts | 263° |
| 2026-05-07 18:55 | 48.35185 | 11.77888 | 1475 ft | 11 kts | 277° |
| 2026-05-07 18:55 | 48.35262 | 11.77834 | 1483 ft | 15 kts | 354° |
| 2026-05-07 18:55 | 48.35362 | 11.77816 | 1485 ft | 14 kts | 353° |
| 2026-05-07 18:56 | 48.35464 | 11.77799 | 1482 ft | 15 kts | 353° |
| 2026-05-07 18:56 | 48.35554 | 11.77783 | 1479 ft | 9 kts | 353° |
| 2026-05-07 18:56 | 48.35592 | 11.77777 | 1474 ft | 3 kts | 353° |
| 2026-05-07 18:56 | 48.35605 | 11.77774 | 1476 ft | 2 kts | 353° |
| 2026-05-07 18:57 | 48.35639 | 11.77769 | 1485 ft | 5 kts | 354° |
| 2026-05-07 18:57 | 48.35671 | 11.77763 | 1480 ft | 4 kts | 353° |
| 2026-05-07 18:57 | 48.35717 | 11.77755 | 1481 ft | 7 kts | 353° |
| 2026-05-07 18:57 | 48.35719 | 11.77755 | 1475 ft | 0 kts | 353° |
| 2026-05-07 18:59 | 48.35723 | 11.77754 | 1477 ft | 3 kts | 353° |
| 2026-05-07 18:59 | 48.35765 | 11.77767 | 1482 ft | 9 kts | 33° |
| 2026-05-07 18:59 | 48.35780 | 11.77824 | 1476 ft | 9 kts | 73° |
| 2026-05-07 18:59 | 48.35814 | 11.77866 | 1476 ft | 4 kts | 4° |
| 2026-05-07 19:00 | 48.35833 | 11.77862 | 1482 ft | 2 kts | 352° |
| 2026-05-07 19:00 | 48.35840 | 11.77860 | 1483 ft | 1 kts | 352° |
| 2026-05-07 19:00 | 48.35864 | 11.77856 | 1476 ft | 4 kts | 353° |
| 2026-05-07 19:00 | 48.35868 | 11.77855 | 1478 ft | 2 kts | 353° |
| 2026-05-07 19:01 | 48.35927 | 11.77846 | 1478 ft | 15 kts | 354° |
| 2026-05-07 19:01 | 48.35988 | 11.77944 | 1482 ft | 15 kts | 84° |
| 2026-05-07 19:01 | 48.36002 | 11.78136 | 1485 ft | 21 kts | 83° |
| 2026-05-07 19:01 | 48.36020 | 11.78359 | 1481 ft | 22 kts | 83° |
| 2026-05-07 19:02 | 48.36089 | 11.78484 | 1482 ft | 17 kts | 2° |
| 2026-05-07 19:02 | 48.36147 | 11.78613 | 1485 ft | 17 kts | 84° |
| 2026-05-07 19:02 | 48.36161 | 11.78799 | 1476 ft | 18 kts | 83° |
| 2026-05-07 19:02 | 48.36178 | 11.79002 | 1485 ft | 22 kts | 84° |
| 2026-05-07 19:03 | 48.36197 | 11.79258 | 1485 ft | 27 kts | 83° |
| 2026-05-07 19:03 | 48.36221 | 11.79561 | 1485 ft | 30 kts | 83° |
| 2026-05-07 19:03 | 48.36246 | 11.79877 | 1485 ft | 30 kts | 83° |
| 2026-05-07 19:03 | 48.36270 | 11.80191 | 1485 ft | 30 kts | 83° |
| 2026-05-07 19:04 | 48.36293 | 11.80503 | 1480 ft | 30 kts | 83° |
| 2026-05-07 19:04 | 48.36317 | 11.80813 | 1483 ft | 30 kts | 83° |
| 2026-05-07 19:04 | 48.36341 | 11.81123 | 1482 ft | 30 kts | 83° |
| 2026-05-07 19:04 | 48.36364 | 11.81428 | 1485 ft | 30 kts | 83° |
| 2026-05-07 19:05 | 48.36388 | 11.81736 | 1485 ft | 29 kts | 83° |
| 2026-05-07 19:05 | 48.36407 | 11.81975 | 1485 ft | 20 kts | 56° |
| 2026-05-07 19:05 | 48.36507 | 11.81991 | 1485 ft | 19 kts | 355° |
| 2026-05-07 19:05 | 48.36644 | 11.81970 | 1477 ft | 19 kts | 347° |
| 2026-05-07 19:06 | 48.36670 | 11.81879 | 1482 ft | 0 kts | 264° |
| 2026-05-07 19:07 | 48.36666 | 11.81827 | 1473 ft | 23 kts | 264° |
| 2026-05-07 19:08 | 48.36618 | 11.81199 | 1485 ft | 94 kts | 263° |
| 2026-05-07 19:08 | 48.36521 | 11.79930 | 1476 ft | 147 kts | 263° |
| 2026-05-07 19:08 | 48.36394 | 11.78209 | 1697 ft | 170 kts | 265° |
| 2026-05-07 19:08 | 48.36264 | 11.76479 | 2500 ft | 165 kts | 265° |
| 2026-05-07 19:09 | 48.36139 | 11.74746 | 3116 ft | 171 kts | 265° |
| 2026-05-07 19:09 | 48.36012 | 11.72895 | 3466 ft | 188 kts | 265° |
| 2026-05-07 19:09 | 48.35884 | 11.70860 | 3738 ft | 207 kts | 265° |
| 2026-05-07 19:09 | 48.35754 | 11.68608 | 4064 ft | 224 kts | 271° |
| 2026-05-07 19:10 | 48.36269 | 11.66396 | 4682 ft | 232 kts | 310° |
| 2026-05-07 19:10 | 48.37659 | 11.64980 | 5091 ft | 256 kts | 338° |
| 2026-05-07 19:10 | 48.39418 | 11.64280 | 5778 ft | 266 kts | 348° |
| 2026-05-07 19:10 | 48.41267 | 11.63855 | 6613 ft | 270 kts | 350° |
| 2026-05-07 19:11 | 48.43148 | 11.63484 | 7429 ft | 274 kts | 349° |
| 2026-05-07 19:11 | 48.45030 | 11.63085 | 8227 ft | 277 kts | 348° |
| 2026-05-07 19:11 | 48.46949 | 11.62628 | 9034 ft | 281 kts | 346° |
| 2026-05-07 19:11 | 48.48895 | 11.62096 | 9838 ft | 284 kts | 342° |
| 2026-05-07 19:12 | 48.50783 | 11.61159 | 10445 ft | 293 kts | 336° |
| 2026-05-07 19:12 | 48.52780 | 11.60076 | 10658 ft | 316 kts | 336° |
| 2026-05-07 19:12 | 48.54910 | 11.58907 | 10991 ft | 332 kts | 336° |
| 2026-05-07 19:12 | 48.57108 | 11.57704 | 11630 ft | 338 kts | 337° |
| 2026-05-07 19:13 | 48.59336 | 11.56490 | 12333 ft | 342 kts | 337° |
| 2026-05-07 19:13 | 48.61593 | 11.55264 | 13038 ft | 346 kts | 338° |
| 2026-05-07 19:13 | 48.63937 | 11.54437 | 13704 ft | 353 kts | 349° |
| 2026-05-07 19:13 | 48.66382 | 11.53896 | 14339 ft | 356 kts | 349° |
| 2026-05-07 19:14 | 48.68845 | 11.53362 | 14975 ft | 359 kts | 349° |
| 2026-05-07 19:14 | 48.71327 | 11.52833 | 15611 ft | 361 kts | 349° |
| 2026-05-07 19:14 | 48.73837 | 11.52299 | 16241 ft | 364 kts | 349° |
| 2026-05-07 19:14 | 48.76350 | 11.51761 | 16859 ft | 367 kts | 348° |
| 2026-05-07 19:15 | 48.78891 | 11.51215 | 17477 ft | 369 kts | 348° |
| 2026-05-07 19:15 | 48.81447 | 11.50660 | 18088 ft | 372 kts | 348° |
| 2026-05-07 19:15 | 48.84027 | 11.50097 | 18627 ft | 375 kts | 348° |
| 2026-05-07 19:15 | 48.86583 | 11.49540 | 19146 ft | 378 kts | 348° |
| 2026-05-07 19:16 | 48.89202 | 11.48973 | 19660 ft | 380 kts | 348° |
| 2026-05-07 19:16 | 48.91830 | 11.48404 | 20166 ft | 383 kts | 349° |
| 2026-05-07 19:16 | 48.94479 | 11.47828 | 20661 ft | 386 kts | 349° |
| 2026-05-07 19:16 | 48.97145 | 11.47247 | 21144 ft | 388 kts | 349° |
| 2026-05-07 19:17 | 48.99834 | 11.46658 | 21641 ft | 391 kts | 349° |
| 2026-05-07 19:17 | 49.02537 | 11.46065 | 22121 ft | 394 kts | 349° |
| 2026-05-07 19:17 | 49.05260 | 11.45467 | 22577 ft | 396 kts | 349° |
| 2026-05-07 19:17 | 49.08001 | 11.44867 | 23019 ft | 399 kts | 349° |
| 2026-05-07 19:18 | 49.10764 | 11.44261 | 23462 ft | 402 kts | 349° |
| 2026-05-07 19:18 | 49.13544 | 11.43651 | 23846 ft | 404 kts | 349° |
| 2026-05-07 19:18 | 49.16306 | 11.43046 | 24198 ft | 407 kts | 349° |
| 2026-05-07 19:18 | 49.19120 | 11.42429 | 24575 ft | 409 kts | 349° |
| 2026-05-07 19:19 | 49.21946 | 11.41809 | 24942 ft | 411 kts | 349° |
| 2026-05-07 19:19 | 49.24793 | 11.41182 | 25317 ft | 413 kts | 349° |
| 2026-05-07 19:19 | 49.27614 | 11.40563 | 25682 ft | 415 kts | 349° |
| 2026-05-07 19:19 | 49.30484 | 11.39933 | 26055 ft | 417 kts | 349° |
| 2026-05-07 19:20 | 49.33375 | 11.39299 | 26411 ft | 419 kts | 349° |
| 2026-05-07 19:20 | 49.36275 | 11.38662 | 26766 ft | 421 kts | 349° |
| 2026-05-07 19:20 | 49.39192 | 11.38016 | 27116 ft | 423 kts | 349° |
| 2026-05-07 19:20 | 49.42067 | 11.37373 | 27452 ft | 425 kts | 349° |
| 2026-05-07 19:21 | 49.44998 | 11.36717 | 27808 ft | 427 kts | 349° |
| 2026-05-07 19:21 | 49.47946 | 11.36056 | 28156 ft | 428 kts | 349° |
| 2026-05-07 19:21 | 49.50908 | 11.35395 | 28499 ft | 430 kts | 349° |
| 2026-05-07 19:21 | 49.53876 | 11.34733 | 28824 ft | 432 kts | 349° |
| 2026-05-07 19:22 | 49.56859 | 11.34068 | 29145 ft | 434 kts | 350° |
| 2026-05-07 19:22 | 49.59858 | 11.33399 | 29444 ft | 436 kts | 350° |
| 2026-05-07 19:22 | 49.62877 | 11.32722 | 29757 ft | 437 kts | 350° |
| 2026-05-07 19:22 | 49.65853 | 11.32053 | 30026 ft | 439 kts | 350° |
| 2026-05-07 19:23 | 49.68878 | 11.31372 | 30291 ft | 440 kts | 350° |
| 2026-05-07 19:23 | 49.71917 | 11.30689 | 30540 ft | 442 kts | 350° |
| 2026-05-07 19:23 | 49.74964 | 11.30006 | 30788 ft | 443 kts | 350° |
| 2026-05-07 19:23 | 49.78027 | 11.29318 | 31002 ft | 445 kts | 350° |
| 2026-05-07 19:24 | 49.84167 | 11.27938 | 31067 ft | 445 kts | 350° |
| 2026-05-07 19:24 | 49.90317 | 11.26548 | 31072 ft | 446 kts | 350° |
| 2026-05-07 19:25 | 49.96451 | 11.25149 | 31068 ft | 446 kts | 350° |
| 2026-05-07 19:25 | 50.02569 | 11.23765 | 31073 ft | 446 kts | 351° |
| 2026-05-07 19:26 | 50.08744 | 11.22646 | 31071 ft | 447 kts | 358° |
| 2026-05-07 19:26 | 50.14978 | 11.22679 | 31068 ft | 447 kts | 359° |
| 2026-05-07 19:27 | 50.21196 | 11.22712 | 31316 ft | 447 kts | 359° |
| 2026-05-07 19:27 | 50.24315 | 11.22731 | 31614 ft | 447 kts | 359° |
| 2026-05-07 19:27 | 50.27432 | 11.22753 | 31939 ft | 447 kts | 359° |
| 2026-05-07 19:28 | 50.30504 | 11.22775 | 32230 ft | 447 kts | 359° |
| 2026-05-07 19:28 | 50.33613 | 11.22798 | 32530 ft | 447 kts | 359° |
| 2026-05-07 19:28 | 50.36726 | 11.22723 | 32823 ft | 447 kts | 354° |
| 2026-05-07 19:28 | 50.39825 | 11.22267 | 33118 ft | 447 kts | 353° |
| 2026-05-07 19:29 | 50.42927 | 11.21793 | 33420 ft | 447 kts | 353° |
| 2026-05-07 19:29 | 50.46027 | 11.21318 | 33722 ft | 447 kts | 353° |
| 2026-05-07 19:29 | 50.49123 | 11.20846 | 34018 ft | 447 kts | 353° |
| 2026-05-07 19:29 | 50.52227 | 11.20372 | 34291 ft | 447 kts | 353° |
| 2026-05-07 19:30 | 50.55284 | 11.19908 | 34518 ft | 447 kts | 353° |
| 2026-05-07 19:30 | 50.58385 | 11.19441 | 34755 ft | 447 kts | 353° |
| 2026-05-07 19:30 | 50.61493 | 11.18972 | 34993 ft | 447 kts | 353° |
| 2026-05-07 19:30 | 50.64596 | 11.18501 | 35235 ft | 447 kts | 353° |
| 2026-05-07 19:31 | 50.67693 | 11.18031 | 35476 ft | 447 kts | 353° |
| 2026-05-07 19:31 | 50.70792 | 11.17628 | 35729 ft | 447 kts | 354° |
| 2026-05-07 19:31 | 50.73887 | 11.17296 | 35976 ft | 446 kts | 355° |
| 2026-05-07 19:31 | 50.76993 | 11.17004 | 36084 ft | 449 kts | 355° |
| 2026-05-07 19:32 | 50.83250 | 11.16435 | 36105 ft | 450 kts | 355° |
| 2026-05-07 19:32 | 50.89498 | 11.15805 | 36111 ft | 450 kts | 354° |
| 2026-05-07 19:33 | 50.95763 | 11.15135 | 36109 ft | 450 kts | 354° |
| 2026-05-07 19:33 | 51.01969 | 11.14471 | 36111 ft | 450 kts | 354° |
| 2026-05-07 19:34 | 51.08210 | 11.13806 | 36108 ft | 450 kts | 354° |
| 2026-05-07 19:34 | 51.14484 | 11.13140 | 36109 ft | 450 kts | 354° |
| 2026-05-07 19:35 | 51.20750 | 11.12471 | 36111 ft | 451 kts | 355° |
| 2026-05-07 19:35 | 51.26974 | 11.11809 | 36114 ft | 451 kts | 355° |
| 2026-05-07 19:36 | 51.33241 | 11.11140 | 36112 ft | 451 kts | 354° |
| 2026-05-07 19:36 | 51.39516 | 11.10465 | 36114 ft | 451 kts | 355° |
| 2026-05-07 19:37 | 51.45780 | 11.09793 | 36116 ft | 451 kts | 355° |
| 2026-05-07 19:37 | 51.52045 | 11.09120 | 36120 ft | 451 kts | 355° |
| 2026-05-07 19:38 | 51.58275 | 11.08447 | 36119 ft | 451 kts | 355° |
| 2026-05-07 19:38 | 51.64544 | 11.07765 | 36123 ft | 451 kts | 355° |
| 2026-05-07 19:39 | 51.70809 | 11.07080 | 36117 ft | 450 kts | 355° |
| 2026-05-07 19:39 | 51.76008 | 11.06515 | 36118 ft | 450 kts | 355° |
| 2026-05-07 19:40 | 51.82265 | 11.05832 | 35835 ft | 453 kts | 355° |
| 2026-05-07 19:40 | 51.85406 | 11.05490 | 35350 ft | 450 kts | 355° |
| 2026-05-07 19:40 | 51.89530 | 11.04933 | 34717 ft | 448 kts | 353° |
| 2026-05-07 19:41 | 51.92626 | 11.04331 | 34253 ft | 446 kts | 352° |
| 2026-05-07 19:41 | 51.94663 | 11.03877 | 33906 ft | 446 kts | 351° |
| 2026-05-07 19:41 | 51.97733 | 11.03149 | 33353 ft | 444 kts | 351° |
| 2026-05-07 19:41 | 52.00823 | 11.02404 | 32797 ft | 441 kts | 351° |
| 2026-05-07 19:42 | 52.03802 | 11.01708 | 32272 ft | 437 kts | 351° |
| 2026-05-07 19:42 | 52.06802 | 11.01036 | 31748 ft | 432 kts | 352° |
| 2026-05-07 19:42 | 52.09771 | 11.00395 | 31233 ft | 428 kts | 352° |
| 2026-05-07 19:42 | 52.12712 | 10.99773 | 30723 ft | 424 kts | 352° |
| 2026-05-07 19:43 | 52.15629 | 10.99157 | 30239 ft | 419 kts | 352° |
| 2026-05-07 19:43 | 52.18512 | 10.98545 | 29661 ft | 415 kts | 352° |
| 2026-05-07 19:43 | 52.21369 | 10.97936 | 29090 ft | 412 kts | 352° |
| 2026-05-07 19:43 | 52.24206 | 10.97332 | 28528 ft | 408 kts | 352° |
| 2026-05-07 19:44 | 52.27007 | 10.96731 | 27985 ft | 405 kts | 352° |
| 2026-05-07 19:44 | 52.29789 | 10.96128 | 27439 ft | 402 kts | 352° |
| 2026-05-07 19:44 | 52.32514 | 10.95536 | 26923 ft | 398 kts | 352° |
| 2026-05-07 19:44 | 52.35259 | 10.94940 | 26400 ft | 395 kts | 352° |
| 2026-05-07 19:45 | 52.37973 | 10.94350 | 25908 ft | 391 kts | 352° |
| 2026-05-07 19:45 | 52.40660 | 10.93764 | 25658 ft | 388 kts | 352° |
| 2026-05-07 19:45 | 52.43333 | 10.93181 | 25351 ft | 386 kts | 352° |
| 2026-05-07 19:45 | 52.45966 | 10.92608 | 24982 ft | 384 kts | 351° |
| 2026-05-07 19:46 | 52.48618 | 10.92027 | 24616 ft | 382 kts | 351° |
| 2026-05-07 19:46 | 52.51257 | 10.91451 | 24256 ft | 381 kts | 351° |
| 2026-05-07 19:46 | 52.53880 | 10.90877 | 23903 ft | 379 kts | 351° |
| 2026-05-07 19:46 | 52.56457 | 10.90312 | 23530 ft | 377 kts | 351° |
| 2026-05-07 19:47 | 52.59053 | 10.89740 | 23108 ft | 375 kts | 351° |
| 2026-05-07 19:47 | 52.61639 | 10.89171 | 22698 ft | 373 kts | 351° |
| 2026-05-07 19:47 | 52.64214 | 10.88607 | 22291 ft | 371 kts | 351° |
| 2026-05-07 19:47 | 52.66772 | 10.88046 | 21890 ft | 369 kts | 351° |
| 2026-05-07 19:48 | 52.69320 | 10.87490 | 21497 ft | 367 kts | 351° |
| 2026-05-07 19:48 | 52.71837 | 10.86940 | 21102 ft | 362 kts | 351° |
| 2026-05-07 19:48 | 52.74252 | 10.86409 | 20719 ft | 347 kts | 351° |
| 2026-05-07 19:48 | 52.76602 | 10.85891 | 20345 ft | 334 kts | 351° |
| 2026-05-07 19:49 | 52.78868 | 10.85390 | 19965 ft | 324 kts | 351° |
| 2026-05-07 19:49 | 52.81095 | 10.84896 | 19600 ft | 323 kts | 351° |
| 2026-05-07 19:49 | 52.83317 | 10.84397 | 19232 ft | 322 kts | 351° |
| 2026-05-07 19:49 | 52.85536 | 10.83918 | 18868 ft | 321 kts | 352° |
| 2026-05-07 19:50 | 52.87748 | 10.83468 | 18515 ft | 320 kts | 352° |
| 2026-05-07 19:50 | 52.89961 | 10.83030 | 18119 ft | 319 kts | 352° |
| 2026-05-07 19:50 | 52.92168 | 10.82591 | 17714 ft | 319 kts | 352° |
| 2026-05-07 19:50 | 52.94377 | 10.82145 | 17312 ft | 318 kts | 352° |
| 2026-05-07 19:51 | 52.96581 | 10.81698 | 16913 ft | 317 kts | 352° |
| 2026-05-07 19:51 | 52.98730 | 10.81263 | 16528 ft | 312 kts | 352° |
| 2026-05-07 19:51 | 53.00870 | 10.80828 | 16138 ft | 307 kts | 352° |
| 2026-05-07 19:51 | 53.02973 | 10.80398 | 15749 ft | 303 kts | 352° |
| 2026-05-07 19:52 | 53.05061 | 10.79967 | 15379 ft | 301 kts | 352° |
| 2026-05-07 19:52 | 53.07131 | 10.79543 | 15011 ft | 299 kts | 352° |
| 2026-05-07 19:52 | 53.09194 | 10.79124 | 14640 ft | 300 kts | 352° |
| 2026-05-07 19:52 | 53.11274 | 10.78700 | 14281 ft | 301 kts | 352° |
| 2026-05-07 19:53 | 53.13359 | 10.78274 | 13912 ft | 302 kts | 353° |
| 2026-05-07 19:53 | 53.15422 | 10.77850 | 13514 ft | 303 kts | 353° |
| 2026-05-07 19:53 | 53.17518 | 10.77418 | 13104 ft | 303 kts | 353° |
| 2026-05-07 19:53 | 53.19611 | 10.76989 | 12717 ft | 303 kts | 353° |
| 2026-05-07 19:54 | 53.21704 | 10.76561 | 12326 ft | 303 kts | 353° |
| 2026-05-07 19:54 | 53.23795 | 10.76134 | 12008 ft | 300 kts | 353° |
| 2026-05-07 19:54 | 53.25856 | 10.75710 | 11764 ft | 295 kts | 353° |
| 2026-05-07 19:54 | 53.27881 | 10.75287 | 11509 ft | 291 kts | 353° |
| 2026-05-07 19:55 | 53.29877 | 10.74869 | 11254 ft | 286 kts | 353° |
| 2026-05-07 19:55 | 53.31815 | 10.74466 | 11005 ft | 282 kts | 353° |
| 2026-05-07 19:55 | 53.33759 | 10.74066 | 10761 ft | 280 kts | 353° |
| 2026-05-07 19:55 | 53.35686 | 10.73669 | 10509 ft | 277 kts | 353° |
| 2026-05-07 19:56 | 53.37582 | 10.73277 | 10266 ft | 273 kts | 353° |
| 2026-05-07 19:56 | 53.39461 | 10.72883 | 10020 ft | 269 kts | 353° |
| 2026-05-07 19:56 | 53.41302 | 10.72499 | 9756 ft | 265 kts | 353° |
| 2026-05-07 19:56 | 53.43117 | 10.72124 | 9487 ft | 261 kts | 354° |
| 2026-05-07 19:57 | 53.44903 | 10.71755 | 9232 ft | 256 kts | 354° |
| 2026-05-07 19:57 | 53.46652 | 10.71390 | 9114 ft | 250 kts | 354° |
| 2026-05-07 19:57 | 53.48371 | 10.71031 | 9118 ft | 249 kts | 354° |
| 2026-05-07 19:57 | 53.50091 | 10.70672 | 9127 ft | 249 kts | 354° |
| 2026-05-07 19:58 | 53.51813 | 10.70311 | 9133 ft | 249 kts | 354° |
| 2026-05-07 19:58 | 53.53533 | 10.69950 | 9133 ft | 249 kts | 354° |
| 2026-05-07 19:58 | 53.55233 | 10.69592 | 9137 ft | 249 kts | 354° |
| 2026-05-07 19:58 | 53.56953 | 10.69229 | 9141 ft | 249 kts | 354° |
| 2026-05-07 19:59 | 53.58644 | 10.68586 | 9143 ft | 250 kts | 339° |
| 2026-05-07 19:59 | 53.60154 | 10.67129 | 9146 ft | 251 kts | 321° |
| 2026-05-07 19:59 | 53.61342 | 10.64966 | 9145 ft | 253 kts | 303° |
| 2026-05-07 19:59 | 53.62093 | 10.62291 | 9146 ft | 254 kts | 286° |
| 2026-05-07 20:00 | 53.62342 | 10.59356 | 9146 ft | 254 kts | 268° |
| 2026-05-07 20:00 | 53.62052 | 10.56423 | 9144 ft | 255 kts | 252° |
| 2026-05-07 20:00 | 53.61498 | 10.53565 | 8962 ft | 256 kts | 252° |
| 2026-05-07 20:00 | 53.60953 | 10.50721 | 8690 ft | 254 kts | 252° |
| 2026-05-07 20:01 | 53.60421 | 10.47924 | 8431 ft | 253 kts | 252° |
| 2026-05-07 20:01 | 53.59887 | 10.45107 | 8166 ft | 252 kts | 252° |
| 2026-05-07 20:01 | 53.59352 | 10.42286 | 7895 ft | 252 kts | 252° |
| 2026-05-07 20:01 | 53.58817 | 10.39477 | 7637 ft | 251 kts | 252° |
| 2026-05-07 20:02 | 53.58282 | 10.36685 | 7394 ft | 251 kts | 252° |
| 2026-05-07 20:02 | 53.57746 | 10.33903 | 7188 ft | 248 kts | 252° |
| 2026-05-07 20:02 | 53.57212 | 10.31135 | 7123 ft | 248 kts | 252° |
| 2026-05-07 20:02 | 53.56679 | 10.28367 | 7129 ft | 249 kts | 252° |
| 2026-05-07 20:03 | 53.56145 | 10.25592 | 7124 ft | 249 kts | 252° |
| 2026-05-07 20:03 | 53.55615 | 10.22851 | 7126 ft | 249 kts | 252° |
| 2026-05-07 20:03 | 53.55078 | 10.20084 | 7128 ft | 249 kts | 252° |
| 2026-05-07 20:03 | 53.54542 | 10.17317 | 7136 ft | 249 kts | 251° |
| 2026-05-07 20:04 | 53.53683 | 10.14827 | 7132 ft | 248 kts | 223° |
| 2026-05-07 20:04 | 53.52211 | 10.13414 | 7127 ft | 245 kts | 191° |
| 2026-05-07 20:04 | 53.50533 | 10.13479 | 7132 ft | 242 kts | 159° |
| 2026-05-07 20:04 | 53.49106 | 10.14914 | 7133 ft | 240 kts | 138° |
| 2026-05-07 20:05 | 53.47866 | 10.16798 | 7132 ft | 240 kts | 135° |
| 2026-05-07 20:05 | 53.46720 | 10.18834 | 7124 ft | 238 kts | 120° |
| 2026-05-07 20:05 | 53.46240 | 10.21402 | 7133 ft | 235 kts | 89° |
| 2026-05-07 20:05 | 53.46652 | 10.24010 | 7133 ft | 234 kts | 57° |
| 2026-05-07 20:06 | 53.47841 | 10.25835 | 7121 ft | 235 kts | 25° |
| 2026-05-07 20:06 | 53.49442 | 10.26305 | 7122 ft | 238 kts | 353° |
| 2026-05-07 20:06 | 53.50991 | 10.25297 | 6911 ft | 241 kts | 322° |
| 2026-05-07 20:06 | 53.52106 | 10.23198 | 6663 ft | 243 kts | 307° |
| 2026-05-07 20:07 | 53.53058 | 10.20853 | 6409 ft | 243 kts | 304° |
| 2026-05-07 20:07 | 53.53974 | 10.18509 | 6146 ft | 242 kts | 304° |
| 2026-05-07 20:07 | 53.54889 | 10.16133 | 5882 ft | 242 kts | 301° |
| 2026-05-07 20:07 | 53.55368 | 10.13460 | 5627 ft | 242 kts | 269° |
| 2026-05-07 20:08 | 53.54951 | 10.10766 | 5368 ft | 240 kts | 238° |
| 2026-05-07 20:08 | 53.53990 | 10.08478 | 5113 ft | 240 kts | 230° |
| 2026-05-07 20:08 | 53.52944 | 10.06287 | 5002 ft | 240 kts | 229° |
| 2026-05-07 20:08 | 53.51889 | 10.04111 | 5005 ft | 240 kts | 229° |
| 2026-05-07 20:09 | 53.50830 | 10.01932 | 5009 ft | 240 kts | 229° |
| 2026-05-07 20:09 | 53.49771 | 9.99756 | 5009 ft | 240 kts | 229° |
| 2026-05-07 20:09 | 53.48712 | 9.97580 | 5009 ft | 241 kts | 229° |
| 2026-05-07 20:10 | 53.46605 | 9.93255 | 5013 ft | 241 kts | 229° |
| 2026-05-07 20:10 | 53.45546 | 9.91080 | 5013 ft | 241 kts | 229° |
| 2026-05-07 20:10 | 53.44486 | 9.88906 | 5011 ft | 240 kts | 229° |
| 2026-05-07 20:10 | 53.43425 | 9.86731 | 5007 ft | 241 kts | 229° |
| 2026-05-07 20:11 | 53.42365 | 9.84560 | 5010 ft | 240 kts | 229° |
| 2026-05-07 20:11 | 53.41304 | 9.82387 | 5008 ft | 240 kts | 229° |
| 2026-05-07 20:11 | 53.40240 | 9.80210 | 5004 ft | 241 kts | 229° |
| 2026-05-07 20:11 | 53.39178 | 9.78038 | 5002 ft | 241 kts | 229° |
| 2026-05-07 20:12 | 53.38130 | 9.75891 | 4948 ft | 233 kts | 229° |
| 2026-05-07 20:12 | 53.37108 | 9.73791 | 4675 ft | 232 kts | 229° |
| 2026-05-07 20:12 | 53.36128 | 9.71659 | 4408 ft | 231 kts | 239° |
| 2026-05-07 20:12 | 53.35739 | 9.69121 | 4144 ft | 231 kts | 274° |
| 2026-05-07 20:13 | 53.36235 | 9.66617 | 3883 ft | 226 kts | 306° |
| 2026-05-07 20:13 | 53.37206 | 9.64622 | 3625 ft | 218 kts | 319° |
| 2026-05-07 20:13 | 53.38440 | 9.63180 | 3406 ft | 215 kts | 332° |
| 2026-05-07 20:13 | 53.39748 | 9.61970 | 3254 ft | 214 kts | 334° |
| 2026-05-07 20:14 | 53.41101 | 9.61096 | 3104 ft | 209 kts | 359° |
| 2026-05-07 20:14 | 53.42503 | 9.61453 | 3014 ft | 200 kts | 20° |
| 2026-05-07 20:14 | 53.43762 | 9.62201 | 3021 ft | 184 kts | 24° |
| 2026-05-07 20:14 | 53.44926 | 9.62973 | 3003 ft | 177 kts | 31° |
| 2026-05-07 20:15 | 53.45834 | 9.64271 | 3007 ft | 170 kts | 53° |
| 2026-05-07 20:15 | 53.46596 | 9.65795 | 3007 ft | 170 kts | 52° |
| 2026-05-07 20:15 | 53.47356 | 9.67312 | 3009 ft | 170 kts | 52° |
| 2026-05-07 20:15 | 53.48116 | 9.68832 | 3009 ft | 170 kts | 52° |
| 2026-05-07 20:16 | 53.48877 | 9.70352 | 3009 ft | 170 kts | 52° |
| 2026-05-07 20:16 | 53.49638 | 9.71875 | 3010 ft | 170 kts | 53° |
| 2026-05-07 20:16 | 53.50399 | 9.73396 | 3010 ft | 170 kts | 52° |
| 2026-05-07 20:16 | 53.51151 | 9.74901 | 3011 ft | 170 kts | 53° |
| 2026-05-07 20:17 | 53.51913 | 9.76428 | 3009 ft | 170 kts | 52° |
| 2026-05-07 20:17 | 53.52678 | 9.77962 | 2897 ft | 171 kts | 53° |
| 2026-05-07 20:17 | 53.53440 | 9.79491 | 2709 ft | 170 kts | 53° |
| 2026-05-07 20:17 | 53.54199 | 9.81014 | 2493 ft | 169 kts | 53° |
| 2026-05-07 20:18 | 53.54950 | 9.82522 | 2265 ft | 167 kts | 53° |
| 2026-05-07 20:18 | 53.55695 | 9.84019 | 2041 ft | 166 kts | 53° |
| 2026-05-07 20:18 | 53.56432 | 9.85500 | 1802 ft | 165 kts | 53° |
| 2026-05-07 20:18 | 53.57139 | 9.86920 | 1609 ft | 148 kts | 53° |
| 2026-05-07 20:19 | 53.57784 | 9.88221 | 1377 ft | 142 kts | 53° |
| 2026-05-07 20:19 | 53.58417 | 9.89472 | 1170 ft | 139 kts | 53° |
| 2026-05-07 20:19 | 53.59020 | 9.90707 | 961 ft | 138 kts | 52° |
| 2026-05-07 20:19 | 53.59639 | 9.91950 | 746 ft | 140 kts | 52° |
| 2026-05-07 20:20 | 53.60258 | 9.93208 | 578 ft | 140 kts | 51° |
| 2026-05-07 20:20 | 53.60889 | 9.94469 | 385 ft | 141 kts | 51° |
| 2026-05-07 20:20 | 53.61514 | 9.95741 | 208 ft | 141 kts | 50° |
| 2026-05-07 20:20 | 53.62133 | 9.96995 | 49 ft | 136 kts | 50° |
| 2026-05-07 20:21 | 53.62657 | 9.98052 | 42 ft | 91 kts | 50° |
| 2026-05-07 20:21 | 53.62970 | 9.98688 | 45 ft | 41 kts | 50° |
| 2026-05-07 20:21 | 53.63084 | 9.99013 | 44 ft | 28 kts | 80° |
| 2026-05-07 20:21 | 53.63085 | 9.99254 | 47 ft | 17 kts | 95° |
| 2026-05-07 20:22 | 53.63121 | 9.99446 | 46 ft | 19 kts | 45° |
| 2026-05-07 20:22 | 53.63199 | 9.99625 | 48 ft | 18 kts | 49° |
| 2026-05-07 20:22 | 53.63279 | 9.99766 | 48 ft | 17 kts | 44° |
| 2026-05-07 20:22 | 53.63360 | 9.99928 | 48 ft | 19 kts | 50° |
| 2026-05-07 20:23 | 53.63426 | 10.00070 | 48 ft | 13 kts | 68° |
| 2026-05-07 20:23 | 53.63411 | 10.00164 | 48 ft | 7 kts | 124° |
| 2026-05-07 20:23 | 53.63384 | 10.00218 | 48 ft | 5 kts | 146° |
| 2026-05-07 20:23 | 53.63351 | 10.00231 | 46 ft | 4 kts | 174° |
| 2026-05-07 20:24 | 53.63333 | 10.00236 | 48 ft | 4 kts | 165° |
| 2026-05-07 20:24 | 53.63328 | 10.00263 | 48 ft | 4 kts | 99° |
| 2026-05-07 20:24 | 53.63330 | 10.00325 | 48 ft | 4 kts | 86° |
| 2026-05-07 20:24 | 53.63331 | 10.00348 | 48 ft | 0 kts | 85° |